Time;durP1;ratioP1;P1;durP2;ratioP2;P2;SDS_P1;SDS_P2;PMS_P1;PMS_P2;Temp;Humidity;BMP_temperature;BMP_pressure;BME280_temperature;BME280_humidity;BME280_pressure;Samples;Min_cycle;Max_cycle;Signal;HPM_P1;HPM_P2
2021/05/20 00:00:46;;;;;;;22.20;18.73;;;;;;;8.85;84.28;102073.25;5135816;27;20023;-39
2021/05/20 00:03:11;;;;;;;20.13;18.13;;;;;;;8.78;83.68;102069.63;5134827;27;20034;-39
2021/05/20 00:05:37;;;;;;;21.98;19.77;;;;;;;8.75;84.39;102073.56;5135649;27;20054;-39
2021/05/20 00:08:02;;;;;;;20.43;18.17;;;;;;;8.75;84.16;102070.03;5135557;27;20109;-39
2021/05/20 00:10:27;;;;;;;20.47;18.37;;;;;;;8.76;83.90;102071.69;5134843;27;20023;-39
2021/05/20 00:12:53;;;;;;;21.00;18.73;;;;;;;8.76;84.54;102071.69;5134638;27;20100;-39
2021/05/20 00:15:18;;;;;;;20.03;18.07;;;;;;;8.83;84.62;102077.16;5134515;27;20140;-39
2021/05/20 00:17:44;;;;;;;20.80;18.77;;;;;;;8.81;84.45;102079.22;5134607;27;20515;-39
2021/05/20 00:20:10;;;;;;;21.05;18.88;;;;;;;8.77;83.84;102084.16;5134867;27;20061;-39
2021/05/20 00:22:36;;;;;;;21.40;18.98;;;;;;;8.83;84.32;102082.56;5134784;27;20023;-39
2021/05/20 00:25:03;;;;;;;20.77;18.67;;;;;;;8.75;83.46;102080.81;5134795;27;20030;-39
2021/05/20 00:27:29;;;;;;;21.27;18.98;;;;;;;8.66;84.61;102077.38;5134678;27;20030;-39
2021/05/20 00:29:55;;;;;;;22.02;19.83;;;;;;;8.67;84.04;102068.25;5134251;27;20023;-39
2021/05/20 00:32:20;;;;;;;18.55;16.67;;;;;;;8.62;84.40;102067.16;5134436;27;20027;-39
2021/05/20 00:34:45;;;;;;;20.63;18.53;;;;;;;8.63;83.60;102071.53;5134995;27;20031;-39
2021/05/20 00:37:10;;;;;;;19.77;17.77;;;;;;;8.61;83.88;102068.19;5134623;27;20066;-39
2021/05/20 00:39:36;;;;;;;19.50;17.50;;;;;;;8.55;83.69;102079.75;5134666;27;20023;-39
2021/05/20 00:42:06;;;;;;;20.33;18.07;;;;;;;8.47;83.92;102073.41;5134277;27;20023;-39
2021/05/20 00:44:32;;;;;;;21.98;19.73;;;;;;;8.49;84.15;102087.56;5134688;27;20086;-39
2021/05/20 00:46:57;;;;;;;21.63;19.33;;;;;;;8.53;84.54;102090.69;5134825;27;20023;-39
2021/05/20 00:49:22;;;;;;;20.47;18.23;;;;;;;8.44;83.73;102079.19;5134239;28;20020;-39
2021/05/20 00:51:48;;;;;;;21.80;19.50;;;;;;;8.36;84.08;102068.50;5134169;28;20019;-39
2021/05/20 00:54:13;;;;;;;19.97;18.07;;;;;;;8.36;83.96;102076.59;5134520;28;20027;-39
2021/05/20 00:56:39;;;;;;;19.90;17.27;;;;;;;8.29;83.66;102072.91;5133980;28;20023;-39
2021/05/20 00:59:05;;;;;;;20.20;17.90;;;;;;;8.21;83.81;102076.56;5134104;28;20114;-39
2021/05/20 01:01:32;;;;;;;20.10;17.90;;;;;;;8.14;83.98;102072.91;5133812;27;20035;-39
2021/05/20 01:03:58;;;;;;;20.90;18.27;;;;;;;8.11;84.37;102084.06;5134338;28;20475;-39
2021/05/20 01:06:23;;;;;;;;;;;;;;;8.31;83.29;102078.97;5134258;28;20390;-39
2021/05/20 01:08:49;;;;;;;20.25;17.80;;;;;;;8.14;83.98;102085.53;5135842;27;19907;-39
2021/05/20 01:11:14;;;;;;;21.30;19.00;;;;;;;8.11;83.75;102085.94;5138563;27;20023;-39
2021/05/20 01:13:39;;;;;;;20.50;18.33;;;;;;;8.06;84.72;102091.88;5137883;27;20039;-39
2021/05/20 01:16:12;;;;;;;21.37;19.23;;;;;;;8.05;84.27;102092.88;5138193;27;20027;-39
2021/05/20 01:18:38;;;;;;;21.20;18.83;;;;;;;8.01;85.26;102102.34;5138576;27;20023;-39
2021/05/20 01:21:03;;;;;;;20.83;18.65;;;;;;;7.98;84.23;102098.16;5138152;27;20023;-39
2021/05/20 01:23:29;;;;;;;20.80;18.63;;;;;;;7.98;84.32;102094.63;5137916;27;20041;-39
2021/05/20 01:25:54;;;;;;;20.07;18.10;;;;;;;8.02;83.83;102100.50;5138279;27;20030;-39
2021/05/20 01:28:25;;;;;;;21.20;18.80;;;;;;;8.06;85.10;102104.50;5137932;27;20292;-39
2021/05/20 01:30:51;;;;;;;21.75;19.45;;;;;;;7.98;84.69;102114.31;5138101;27;20122;-39
2021/05/20 01:33:17;;;;;;;22.95;19.73;;;;;;;8.02;84.92;102100.50;5138556;27;20128;-39
2021/05/20 01:35:44;;;;;;;;;;;;;;;8.17;83.92;102104.88;5138319;27;20031;-39
2021/05/20 01:40:49;;;;;;;22.38;19.98;;;;;;;7.95;84.72;102100.38;5138246;27;20035;-39
2021/05/20 01:43:14;;;;;;;22.77;20.30;;;;;;;7.93;84.25;102107.81;5137827;27;20150;-39
2021/05/20 01:45:39;;;;;;;22.33;20.00;;;;;;;7.93;84.46;102103.25;5137586;27;20494;-39
2021/05/20 01:48:05;;;;;;;23.57;21.00;;;;;;;7.88;84.33;102102.97;5138049;27;20034;-39
2021/05/20 01:50:30;;;;;;;24.48;21.98;;;;;;;7.87;84.16;102101.31;5137555;27;20070;-39
2021/05/20 01:52:56;;;;;;;25.77;22.63;;;;;;;7.89;85.04;102110.03;5137529;27;20118;-39
2021/05/20 01:55:21;;;;;;;24.17;21.60;;;;;;;7.91;85.46;102110.69;5137798;27;20054;-39
2021/05/20 01:57:46;;;;;;;23.60;21.10;;;;;;;7.90;85.12;102111.69;5137683;27;20023;-39
2021/05/20 02:00:12;;;;;;;25.60;21.80;;;;;;;7.82;84.37;102110.97;5136405;27;20031;-39
2021/05/20 02:02:38;;;;;;;25.38;21.90;;;;;;;7.78;84.46;102104.25;5137747;27;20076;-39
2021/05/20 02:05:03;;;;;;;24.03;21.27;;;;;;;7.76;84.59;102107.13;5137506;27;20107;-39
2021/05/20 02:07:28;;;;;;;25.88;21.88;;;;;;;7.80;84.95;102112.97;5137870;27;20103;-39
2021/05/20 02:09:54;;;;;;;26.87;23.03;;;;;;;7.82;84.95;102124.41;5137704;27;20038;-39
2021/05/20 02:12:19;;;;;;;28.23;23.20;;;;;;;7.75;84.38;102121.59;5137562;27;20023;-39
2021/05/20 02:14:44;;;;;;;22.97;20.50;;;;;;;7.62;83.42;102114.16;5136734;27;20076;-39
2021/05/20 02:17:10;;;;;;;22.80;20.43;;;;;;;7.64;83.64;102116.66;5136732;27;20091;-39
2021/05/20 02:19:35;;;;;;;24.53;21.73;;;;;;;7.58;84.88;102112.00;5136712;27;20027;-39
2021/05/20 02:22:00;;;;;;;23.57;21.13;;;;;;;7.56;84.00;102116.69;5137066;27;20042;-39
2021/05/20 02:24:26;;;;;;;23.93;21.03;;;;;;;7.52;83.76;102118.94;5136638;27;20442;-39
2021/05/20 02:26:51;;;;;;;24.63;22.03;;;;;;;7.44;83.64;102114.44;5136806;27;20023;-39
2021/05/20 02:29:16;;;;;;;21.80;19.30;;;;;;;7.43;83.81;102114.63;5136032;27;20039;-39
2021/05/20 02:31:42;;;;;;;23.53;20.93;;;;;;;7.38;83.25;102120.53;5136751;27;20051;-39
2021/05/20 02:34:07;;;;;;;23.77;20.93;;;;;;;7.37;83.29;102118.00;5137041;27;20027;-39
2021/05/20 02:36:33;;;;;;;23.20;20.70;;;;;;;7.35;83.27;102123.59;5136327;27;20099;-39
2021/05/20 02:38:58;;;;;;;23.75;20.77;;;;;;;7.26;83.12;102113.88;5136062;27;20070;-39
2021/05/20 02:41:23;;;;;;;26.33;21.73;;;;;;;7.25;84.04;102117.59;5136271;27;20045;-39
2021/05/20 02:43:49;;;;;;;23.60;21.10;;;;;;;7.26;84.45;102124.66;5137311;27;20055;-39
2021/05/20 02:46:14;;;;;;;23.60;21.10;;;;;;;7.19;83.81;102116.47;5136492;27;20027;-39
2021/05/20 02:48:39;;;;;;;24.13;20.90;;;;;;;7.22;82.76;102112.56;5136767;27;20019;-39
2021/05/20 02:51:05;;;;;;;23.97;21.37;;;;;;;7.16;82.87;102114.13;5136384;27;20080;-39
2021/05/20 02:53:30;;;;;;;24.13;21.40;;;;;;;7.23;84.27;102122.34;5136274;27;20079;-39
2021/05/20 02:55:55;;;;;;;24.27;21.70;;;;;;;7.35;84.36;102120.06;5136781;27;20261;-39
2021/05/20 02:58:22;;;;;;;26.43;22.17;;;;;;;7.34;85.28;102129.16;5136475;27;20027;-40
2021/05/20 03:00:48;;;;;;;27.85;22.73;;;;;;;7.22;84.73;102117.94;5136517;27;20396;-39
2021/05/20 03:03:15;;;;;;;22.55;20.13;;;;;;;7.30;85.12;102119.75;5135818;27;20492;-39
2021/05/20 03:05:41;;;;;;;24.00;21.40;;;;;;;7.29;84.75;102116.22;5136671;27;20464;-39
2021/05/20 03:08:08;;;;;;;27.50;23.17;;;;;;;7.40;85.61;102120.34;5136073;27;20035;-39
2021/05/20 03:10:33;;;;;;;27.52;23.58;;;;;;;7.38;86.02;102120.53;5136785;27;20272;-39
2021/05/20 03:12:58;;;;;;;33.63;24.83;;;;;;;7.51;85.74;102117.25;5135994;27;20034;-39
2021/05/20 03:15:24;;;;;;;38.77;26.07;;;;;;;7.54;86.65;102111.50;5135991;27;20027;-39
2021/05/20 03:17:49;;;;;;;41.03;30.07;;;;;;;7.63;87.58;102107.75;5135903;27;20026;-39
2021/05/20 03:20:15;;;;;;;37.87;28.87;;;;;;;7.66;87.05;102106.53;5135795;27;20024;-39
2021/05/20 03:22:40;;;;;;;45.33;27.58;;;;;;;7.64;86.73;102111.25;5135634;27;20034;-39
2021/05/20 03:25:06;;;;;;;154.30;31.30;;;;;;;7.67;87.47;102111.75;5135704;27;20387;-39
2021/05/20 03:27:32;;;;;;;77.13;26.55;;;;;;;7.77;88.00;102114.19;5136320;27;20378;-39
2021/05/20 03:29:57;;;;;;;134.23;25.43;;;;;;;7.79;87.68;102106.75;5135901;27;20107;-39
2021/05/20 03:32:23;;;;;;;129.17;27.67;;;;;;;7.84;87.71;102109.75;5135266;27;20268;-39
2021/05/20 03:34:48;;;;;;;236.03;28.17;;;;;;;7.77;87.63;102110.66;5135775;27;20063;-39
2021/05/20 03:37:14;;;;;;;58.30;24.27;;;;;;;7.79;86.95;102109.44;5135490;27;20066;-39
2021/05/20 03:39:39;;;;;;;155.90;26.33;;;;;;;7.78;87.62;102106.94;5135195;27;20116;-39
2021/05/20 03:42:05;;;;;;;94.03;25.37;;;;;;;7.87;87.84;102116.63;5135991;27;20027;-39
2021/05/20 03:44:30;;;;;;;145.75;26.95;;;;;;;7.83;87.97;102110.75;5135966;27;20047;-39
2021/05/20 03:46:56;;;;;;;110.80;25.27;;;;;;;7.81;87.93;102110.13;5135645;27;20058;-39
2021/05/20 03:49:21;;;;;;;242.90;25.33;;;;;;;7.76;87.69;102112.53;5135209;27;20031;-40
2021/05/20 03:51:47;;;;;;;122.60;23.20;;;;;;;7.79;86.91;102112.13;5134909;27;20027;-40
2021/05/20 03:54:12;;;;;;;205.77;25.67;;;;;;;7.75;87.72;102126.97;5134871;27;20363;-40
2021/05/20 03:56:37;;;;;;;95.70;21.37;;;;;;;7.79;87.49;102116.69;5135338;27;20098;-39
2021/05/20 03:59:03;;;;;;;92.73;21.70;;;;;;;7.81;87.30;102118.19;5135038;27;20039;-40
2021/05/20 04:01:29;;;;;;;187.48;23.55;;;;;;;7.75;86.74;102124.28;5134923;27;20051;-39
2021/05/20 04:03:54;;;;;;;67.10;20.60;;;;;;;7.74;87.15;102120.75;5135237;27;20078;-40
2021/05/20 04:06:19;;;;;;;91.10;19.93;;;;;;;7.77;87.30;102114.19;5135430;27;20100;-39
2021/05/20 04:08:45;;;;;;;116.77;20.03;;;;;;;7.72;87.22;102117.44;5134577;27;20030;-40
2021/05/20 04:11:10;;;;;;;129.80;21.33;;;;;;;7.71;87.53;102120.28;5135382;27;20027;-40
2021/05/20 04:13:41;;;;;;;114.50;20.30;;;;;;;7.67;87.35;102125.22;5134431;27;20398;-40
2021/05/20 04:16:08;;;;;;;159.20;21.13;;;;;;;7.56;87.04;102122.09;5134792;27;20027;-40
2021/05/20 04:18:34;;;;;;;55.85;17.90;;;;;;;7.67;87.26;102127.91;5134686;27;20437;-40
2021/05/20 04:21:00;;;;;;;94.75;19.13;;;;;;;7.66;87.33;102128.06;5135214;27;20027;-40
2021/05/20 04:23:26;;;;;;;167.98;19.83;;;;;;;7.54;87.39;102127.66;5134246;27;20034;-40
2021/05/20 04:25:52;;;;;;;95.78;18.42;;;;;;;7.54;86.75;102126.81;5133853;27;20061;-40
2021/05/20 04:28:18;;;;;;;85.72;18.25;;;;;;;7.57;87.49;102131.88;5134590;27;20046;-40
2021/05/20 04:30:45;;;;;;;106.90;18.85;;;;;;;7.48;87.34;102131.91;5134946;27;20043;-40
2021/05/20 04:33:10;;;;;;;151.93;19.10;;;;;;;7.42;87.13;102132.63;5134622;27;20131;-40
2021/05/20 04:35:36;;;;;;;120.25;17.80;;;;;;;7.48;87.62;102133.78;5134455;27;20415;-40
2021/05/20 04:38:03;;;;;;;102.80;17.93;;;;;;;7.47;88.06;102116.78;5134657;27;20075;-40
2021/05/20 04:40:29;;;;;;;101.85;17.58;;;;;;;7.50;87.70;102120.97;5134655;27;20027;-40
2021/05/20 04:42:55;;;;;;;100.57;19.08;;;;;;;7.54;88.31;102113.38;5133336;27;20054;-40
2021/05/20 04:45:20;;;;;;;123.93;17.30;;;;;;;7.55;88.21;102115.03;5134533;27;20121;-40
2021/05/20 04:47:46;;;;;;;191.23;20.67;;;;;;;7.53;87.94;102120.59;5134274;27;20024;-39
2021/05/20 04:50:13;;;;;;;93.28;18.98;;;;;;;7.61;88.20;102125.06;5134440;28;20019;-40
2021/05/20 04:52:39;;;;;;;69.63;18.48;;;;;;;7.62;88.35;102127.59;5134183;28;20037;-40
2021/05/20 04:55:05;;;;;;;113.82;19.33;;;;;;;7.66;88.39;102130.75;5134180;28;20449;-40
2021/05/20 04:57:31;;;;;;;107.10;18.70;;;;;;;7.67;88.13;102135.16;5134419;28;20027;-40
2021/05/20 04:59:56;;;;;;;64.23;17.17;;;;;;;7.70;87.62;102130.22;5134990;27;20027;-40
2021/05/20 05:02:21;;;;;;;155.37;18.97;;;;;;;7.59;87.36;102127.97;5134307;28;20022;-40
2021/05/20 05:04:47;;;;;;;173.73;21.03;;;;;;;7.53;88.25;102135.94;5134233;28;20069;-39
2021/05/20 05:07:12;;;;;;;179.93;20.43;;;;;;;7.56;88.80;102143.63;5134134;28;20031;-40
2021/05/20 05:09:37;;;;;;;107.60;19.63;;;;;;;7.58;88.87;102133.53;5134719;28;20027;-40
2021/05/20 05:12:03;;;;;;;120.20;19.83;;;;;;;7.57;88.11;102131.88;5134344;28;20023;-40
2021/05/20 05:14:28;;;;;;;119.78;19.67;;;;;;;7.61;88.81;102136.72;5134049;27;20035;-40
2021/05/20 05:16:54;;;;;;;127.57;18.50;;;;;;;7.68;88.70;102147.59;5133708;28;20027;-40
2021/05/20 05:19:20;;;;;;;112.35;16.73;;;;;;;7.69;88.26;102143.88;5134064;28;20019;-40
2021/05/20 05:21:45;;;;;;;73.97;16.65;;;;;;;7.83;88.34;102150.31;5133726;28;20066;-41
2021/05/20 05:24:11;;;;;;;88.73;16.77;;;;;;;7.86;87.68;102145.44;5133646;28;20027;-41
2021/05/20 05:26:36;;;;;;;97.50;17.30;;;;;;;7.90;87.63;102145.88;5133850;28;20034;-40
2021/05/20 05:29:01;;;;;;;130.37;18.40;;;;;;;7.84;87.31;102141.22;5134195;28;20034;-40
2021/05/20 05:31:27;;;;;;;88.23;16.40;;;;;;;7.88;87.94;102138.00;5132899;27;20494;-40
2021/05/20 05:33:53;;;;;;;60.77;16.17;;;;;;;7.90;87.92;102146.72;5133829;27;20292;-40
2021/05/20 05:36:18;;;;;;;74.88;18.20;;;;;;;7.86;88.60;102148.13;5134067;28;20056;-40
2021/05/20 05:38:44;;;;;;;131.27;19.67;;;;;;;7.82;88.64;102144.09;5134452;28;20024;-40
2021/05/20 05:41:09;;;;;;;50.80;17.75;;;;;;;7.86;88.62;102148.13;5134074;28;20269;-40
2021/05/20 05:43:35;;;;;;;99.60;19.23;;;;;;;7.87;88.86;102147.09;5133864;28;20051;-40
2021/05/20 05:46:00;;;;;;;56.97;18.03;;;;;;;7.96;88.54;102156.78;5133781;28;20252;-40
2021/05/20 05:48:25;;;;;;;53.47;18.23;;;;;;;8.03;88.35;102153.34;5133603;28;20383;-39
2021/05/20 05:50:53;;;;;;;45.80;17.33;;;;;;;8.10;88.06;102148.91;5133646;28;20016;-40
2021/05/20 05:53:19;;;;;;;80.32;18.40;;;;;;;8.08;88.08;102154.47;5133456;28;20031;-40
2021/05/20 05:55:44;;;;;;;86.50;18.45;;;;;;;8.13;88.36;102160.16;5136438;27;20034;-40
2021/05/20 05:58:09;;;;;;;81.63;17.50;;;;;;;8.10;87.71;102156.97;5137538;27;20041;-40
2021/05/20 06:00:35;;;;;;;35.27;16.97;;;;;;;8.26;87.88;102156.84;5137697;27;20364;-40
2021/05/20 06:03:01;;;;;;;35.38;16.67;;;;;;;8.31;88.53;102159.00;5137188;27;20031;-40
2021/05/20 06:05:26;;;;;;;80.47;19.40;;;;;;;8.26;88.17;102170.31;5137484;27;20019;-40
2021/05/20 06:07:52;;;;;;;86.20;19.43;;;;;;;8.26;87.16;102170.31;5137473;27;20019;-40
2021/05/20 06:10:17;;;;;;;44.33;18.97;;;;;;;8.31;87.82;102165.22;5137943;27;20578;-40
2021/05/20 06:12:42;;;;;;;78.30;20.13;;;;;;;8.25;88.46;102166.78;5137629;27;20042;-39
2021/05/20 06:15:09;;;;;;;77.77;20.90;;;;;;;8.24;88.34;102175.88;5137468;27;20058;-39
2021/05/20 06:17:37;;;;;;;;;;;;;;;8.39;88.52;102173.22;5137328;27;20051;-40
2021/05/20 06:20:05;;;;;;;96.93;19.95;;;;;;;8.32;87.88;102158.78;5137214;27;19907;-39
2021/05/20 06:22:30;;;;;;;31.73;19.27;;;;;;;8.45;89.09;102163.59;5137483;27;20041;-40
2021/05/20 06:24:55;;;;;;;57.87;20.53;;;;;;;8.48;88.51;102166.72;5137488;27;20027;-39
2021/05/20 06:27:22;;;;;;;51.23;20.13;;;;;;;8.57;88.43;102161.25;5136776;27;20352;-39
2021/05/20 06:29:48;;;;;;;62.33;20.15;;;;;;;8.59;88.92;102168.16;5137328;27;20319;-40
2021/05/20 06:32:13;;;;;;;71.97;21.43;;;;;;;8.56;88.30;102165.81;5136815;27;20045;-39
2021/05/20 06:34:38;;;;;;;59.20;20.27;;;;;;;8.60;88.30;102166.28;5136720;27;20025;-40
2021/05/20 06:37:04;;;;;;;38.47;20.33;;;;;;;8.66;88.98;102166.38;5136930;27;20027;-39
2021/05/20 06:39:30;;;;;;;50.03;22.20;;;;;;;8.71;89.56;102171.22;5136955;27;20507;-40
2021/05/20 06:41:56;;;;;;;31.77;20.90;;;;;;;8.78;89.05;102177.53;5136567;27;20024;-40
2021/05/20 06:44:22;;;;;;;49.83;19.67;;;;;;;8.76;88.58;102182.28;5136928;27;20062;-40
2021/05/20 06:46:48;;;;;;;55.85;21.45;;;;;;;8.67;88.48;102178.00;5136833;27;20447;-40
2021/05/20 06:49:13;;;;;;;67.37;21.93;;;;;;;8.72;88.98;102183.66;5136899;27;20098;-40
2021/05/20 06:51:39;;;;;;;29.38;20.92;;;;;;;8.80;88.80;102188.16;5135952;27;20050;-39
2021/05/20 06:54:04;;;;;;;37.40;21.10;;;;;;;8.85;88.80;102201.91;5136533;27;20064;-39
2021/05/20 06:56:30;;;;;;;30.93;21.23;;;;;;;8.93;88.81;102194.56;5136748;27;20031;-39
2021/05/20 07:01:53;;;;;;;28.88;21.33;;;;;;;8.98;88.78;102200.22;5133719;27;20122;-39
2021/05/20 07:04:19;;;;;;;51.27;21.93;;;;;;;9.01;88.32;102204.41;5133798;27;20545;-41
2021/05/20 07:06:46;;;;;;;66.47;24.17;;;;;;;8.96;88.46;102201.44;5133068;27;20035;-40
2021/05/20 07:09:12;;;;;;;39.45;22.65;;;;;;;9.03;89.25;102197.81;5133896;27;20054;-40
2021/05/20 07:11:37;;;;;;;59.83;26.00;;;;;;;9.03;89.40;102187.00;5133494;27;20199;-40
2021/05/20 07:14:03;;;;;;;38.07;25.70;;;;;;;9.11;88.64;102193.31;5133616;27;20265;-40
2021/05/20 07:16:29;;;;;;;34.10;24.10;;;;;;;9.24;89.88;102188.94;5134165;27;20063;-40
2021/05/20 07:18:54;;;;;;;36.30;24.13;;;;;;;9.41;89.33;102181.41;5133761;27;20119;-40
2021/05/20 07:21:19;;;;;;;52.40;27.07;;;;;;;9.45;89.08;102180.03;5133765;27;20064;-40
2021/05/20 07:23:45;;;;;;;40.10;26.53;;;;;;;9.50;89.23;102184.84;5133358;27;20035;-40
2021/05/20 07:26:10;;;;;;;42.60;27.20;;;;;;;9.57;89.35;102183.06;5134024;27;20084;-40
2021/05/20 07:28:35;;;;;;;45.03;29.13;;;;;;;9.60;88.59;102184.53;5133390;27;20036;-41
2021/05/20 07:31:00;;;;;;;42.80;28.73;;;;;;;9.68;89.72;102181.72;5134047;27;20528;-40
2021/05/20 07:33:27;;;;;;;47.07;30.07;;;;;;;9.71;88.67;102184.03;5133453;27;20043;-40
2021/05/20 07:35:53;;;;;;;44.00;30.02;;;;;;;9.79;88.30;102183.91;5133929;27;20462;-40
2021/05/20 07:38:18;;;;;;;46.42;31.23;;;;;;;9.81;87.71;102184.56;5134823;27;20050;-40
2021/05/20 07:40:43;;;;;;;49.37;33.77;;;;;;;9.87;87.63;102188.34;5135484;27;20031;-40
2021/05/20 07:43:09;;;;;;;51.20;32.90;;;;;;;9.89;87.81;102186.28;5135508;27;20061;-40
2021/05/20 07:45:34;;;;;;;52.07;36.23;;;;;;;9.92;87.64;102188.59;5135890;27;20095;-40
2021/05/20 07:48:00;;;;;;;53.92;37.03;;;;;;;9.94;87.39;102190.06;5135053;27;20023;-40
2021/05/20 07:50:26;;;;;;;50.13;35.90;;;;;;;9.97;88.04;102183.44;5135736;27;20474;-40
2021/05/20 07:52:51;;;;;;;57.22;37.08;;;;;;;10.00;87.49;102178.50;5135145;27;20431;-40
2021/05/20 07:55:17;;;;;;;53.73;38.20;;;;;;;10.04;87.74;102176.22;5134913;27;20070;-40
2021/05/20 07:57:43;;;;;;;50.73;37.67;;;;;;;10.04;87.82;102178.94;5133780;27;20058;-39
2021/05/20 08:00:10;;;;;;;54.15;36.85;;;;;;;10.10;88.05;102182.72;5135093;27;20268;-40
2021/05/20 08:02:52;;;;;;;57.22;40.22;;;;;;;9.96;87.89;102182.63;5134847;27;20033;-39
2021/05/20 08:11:04;;;;;;;53.53;40.80;;;;;;;10.00;88.00;102186.59;5132849;27;20047;-40
2021/05/20 08:13:31;;;;;;;59.28;42.35;;;;;;;9.85;87.33;102175.00;5132992;27;20054;-40
2021/05/20 08:15:58;;;;;;;64.95;47.45;;;;;;;9.77;87.02;102170.59;5132938;27;20031;-40
2021/05/20 08:18:23;;;;;;;67.80;48.22;;;;;;;9.78;87.68;102169.56;5132248;27;20035;-40
2021/05/20 08:20:49;;;;;;;64.63;47.60;;;;;;;9.87;87.31;102169.44;5132575;27;20042;-40
2021/05/20 08:23:14;;;;;;;61.53;44.27;;;;;;;9.94;86.87;102163.03;5133034;27;20059;-40
2021/05/20 08:25:40;;;;;;;62.03;44.67;;;;;;;10.07;86.66;102163.16;5132638;27;20571;-40
2021/05/20 08:28:05;;;;;;;57.33;42.13;;;;;;;10.24;85.55;102165.59;5132942;27;20437;-40
2021/05/20 08:30:31;;;;;;;58.30;43.67;;;;;;;10.34;85.79;102163.38;5132515;27;20631;-40
2021/05/20 08:32:56;;;;;;;54.83;39.35;;;;;;;10.47;85.80;102154.53;5132221;27;20518;-40
2021/05/20 08:35:23;;;;;;;54.03;39.30;;;;;;;10.54;84.21;102147.28;5132703;27;20055;-40
2021/05/20 08:37:48;;;;;;;44.85;36.58;;;;;;;10.72;84.18;102150.31;5132157;27;20030;-40
2021/05/20 08:40:13;;;;;;;50.03;39.43;;;;;;;10.75;83.41;102143.69;5132550;27;20394;-40
2021/05/20 08:42:40;;;;;;;46.17;36.67;;;;;;;10.82;82.59;102139.13;5131717;27;20289;-40
2021/05/20 08:45:09;;;;;;;46.88;38.65;;;;;;;10.94;83.26;102136.69;5132163;27;20047;-41
2021/05/20 08:47:34;;;;;;;53.65;41.38;;;;;;;11.04;84.86;102129.03;5134029;27;20051;-40
2021/05/20 08:50:00;;;;;;;49.23;39.27;;;;;;;11.13;83.27;102124.28;5134600;27;20419;-40
2021/05/20 08:52:26;;;;;;;44.30;37.38;;;;;;;11.15;82.23;102123.00;5134557;27;20027;-40
2021/05/20 08:54:52;;;;;;;50.23;39.63;;;;;;;11.26;82.92;102127.00;5134294;27;20054;-40
2021/05/20 08:57:23;;;;;;;46.47;38.65;;;;;;;11.38;83.04;102125.38;5134243;28;20486;-40
2021/05/20 08:59:48;;;;;;;43.10;35.80;;;;;;;11.48;81.41;102122.28;5134270;27;20096;-40
2021/05/20 09:02:27;;;;;;;43.90;34.33;;;;;;;11.66;81.71;102129.78;5134335;28;20051;-40
2021/05/20 09:05:00;;;;;;;38.45;31.73;;;;;;;11.88;80.17;102122.34;5133781;27;20023;-40
2021/05/20 09:07:35;;;;;;;36.33;30.75;;;;;;;12.09;79.52;102119.38;5134299;28;20023;-39
2021/05/20 09:10:33;;;;;;;38.22;32.08;;;;;;;12.33;79.77;102123.31;5134588;28;20019;-40
2021/05/20 09:13:01;;;;;;;35.17;29.45;;;;;;;12.46;78.30;102128.72;5111134;28;20048;-39
2021/05/20 09:15:35;;;;;;;35.15;30.00;;;;;;;12.46;78.42;102127.91;5111676;28;20062;-39
2021/05/20 09:18:15;;;;;;;37.33;29.95;;;;;;;12.68;78.44;102123.84;5111518;28;20108;-40
2021/05/20 09:20:45;;;;;;;37.38;29.95;;;;;;;12.88;78.29;102112.91;5111028;28;20092;-40
2021/05/20 09:23:13;;;;;;;36.13;31.83;;;;;;;13.14;77.64;102107.38;5111125;28;20097;-40
2021/05/20 09:25:40;;;;;;;34.95;30.10;;;;;;;13.07;75.74;102100.31;5094143;28;20059;-40
2021/05/20 09:28:07;;;;;;;36.10;30.77;;;;;;;13.13;75.87;102100.28;5111146;28;20184;-40
2021/05/20 09:30:37;;;;;;;31.83;27.92;;;;;;;13.19;75.09;102104.00;5113857;28;20031;-40
2021/05/20 09:33:08;;;;;;;34.35;30.50;;;;;;;13.25;74.15;102102.34;5115136;28;20036;-40
2021/05/20 09:35:38;;;;;;;34.08;30.33;;;;;;;13.30;74.87;102103.34;5115162;28;20047;-39
2021/05/20 09:38:11;;;;;;;35.90;29.60;;;;;;;13.63;74.42;102110.44;5114801;28;20124;-39
2021/05/20 09:40:41;;;;;;;32.47;28.13;;;;;;;13.79;73.12;102106.34;5115395;28;20035;-39
2021/05/20 09:43:37;;;;;;;29.08;25.77;;;;;;;14.03;72.24;102105.50;5114527;28;20096;-40
2021/05/20 09:46:13;;;;;;;27.73;24.77;;;;;;;14.17;71.51;102101.59;5113198;28;20054;-39
2021/05/20 09:48:41;;;;;;;28.15;25.17;;;;;;;14.29;70.25;102090.78;5115406;28;20458;-40
2021/05/20 09:51:20;;;;;;;26.48;23.67;;;;;;;14.43;69.29;102091.50;5117192;28;20385;-40
2021/05/20 09:53:48;;;;;;;25.45;22.77;;;;;;;14.50;67.56;102083.31;5117220;28;20372;-40
2021/05/20 09:56:13;;;;;;;26.80;23.40;;;;;;;14.61;68.02;102077.91;5116747;27;20090;-40
2021/05/20 09:58:39;;;;;;;26.57;23.80;;;;;;;14.69;68.58;102076.78;5116649;27;20217;-40
2021/05/20 10:01:17;;;;;;;25.75;22.75;;;;;;;14.82;70.62;102076.59;5117209;28;20360;-40
2021/05/20 10:03:54;;;;;;;26.55;23.85;;;;;;;14.80;71.17;102064.28;5116656;28;20146;-40
2021/05/20 10:06:35;;;;;;;;;;;;;;;15.08;68.98;102067.25;5117397;28;20024;-40
2021/05/20 10:09:03;;;;;;;23.67;21.15;;;;;;;15.18;66.19;102053.91;5116606;28;19912;-40
2021/05/20 10:11:32;;;;;;;23.95;20.38;;;;;;;15.35;66.59;102054.06;5116724;28;20470;-40
2021/05/20 10:13:58;;;;;;;19.23;17.42;;;;;;;15.50;63.43;102041.88;5116236;28;20079;-40
2021/05/20 10:16:27;;;;;;;20.63;18.45;;;;;;;15.57;64.17;102037.16;5116578;28;20024;-40
2021/05/20 10:18:54;;;;;;;21.20;18.90;;;;;;;15.45;64.79;102027.06;5117202;28;20405;-40
2021/05/20 10:21:22;;;;;;;21.27;19.17;;;;;;;15.63;66.79;102022.59;5116757;28;20435;-40
2021/05/20 10:23:48;;;;;;;20.58;18.45;;;;;;;15.83;64.95;102025.00;5116243;28;20030;-40
2021/05/20 10:26:15;;;;;;;18.98;17.15;;;;;;;15.58;64.62;102019.75;5116433;28;20028;-40
2021/05/20 10:28:42;;;;;;;20.60;18.65;;;;;;;15.23;63.92;102022.41;5116334;28;20145;-40
2021/05/20 10:31:07;;;;;;;18.45;16.75;;;;;;;15.02;66.50;102021.84;5116284;28;20019;-40
2021/05/20 10:33:33;;;;;;;19.38;17.55;;;;;;;14.93;65.00;102009.63;5116420;28;20045;-40
2021/05/20 10:36:00;;;;;;;18.50;16.60;;;;;;;15.01;63.56;102009.31;5116699;28;20096;-40
2021/05/20 10:38:25;;;;;;;18.75;16.63;;;;;;;15.17;65.06;101996.91;5116052;28;20382;-40
2021/05/20 10:41:06;;;;;;;17.37;15.77;;;;;;;15.30;66.11;101996.69;5115171;28;20110;-40
2021/05/20 10:43:31;;;;;;;16.35;14.85;;;;;;;15.31;65.70;101994.81;5119818;27;20075;-39
2021/05/20 10:46:12;;;;;;;14.03;12.83;;;;;;;15.28;64.07;101987.13;5136752;27;20027;-40
2021/05/20 10:48:48;;;;;;;14.30;13.00;;;;;;;15.18;63.20;101988.53;5136521;27;20265;-40
2021/05/20 10:51:16;;;;;;;13.65;12.25;;;;;;;15.28;62.86;101977.03;5136704;27;20027;-40
2021/05/20 10:53:48;;;;;;;12.30;11.10;;;;;;;15.41;62.72;101978.69;5136337;27;20031;-40
2021/05/20 10:56:14;;;;;;;11.18;10.00;;;;;;;15.39;63.39;101967.22;5137128;27;20031;-40
2021/05/20 10:58:40;;;;;;;10.47;9.50;;;;;;;15.30;61.38;101974.06;5135949;27;20034;-40
2021/05/20 11:01:16;;;;;;;9.25;8.07;;;;;;;15.15;58.53;101966.34;5135955;27;20470;-39
2021/05/20 11:03:53;;;;;;;7.55;6.80;;;;;;;15.03;60.12;101955.44;5135765;27;20019;-40
2021/05/20 11:06:21;;;;;;;7.20;6.50;;;;;;;15.22;59.85;101952.59;5136151;27;20031;-40
2021/05/20 11:08:46;;;;;;;7.97;5.18;;;;;;;15.30;58.55;101950.38;5136074;27;20352;-40
2021/05/20 11:11:29;;;;;;;5.90;4.87;;;;;;;15.67;60.08;101942.00;5136653;27;20039;-39
2021/05/20 11:13:58;;;;;;;6.10;5.50;;;;;;;15.95;57.57;101944.78;5135647;27;20061;-39
2021/05/20 11:16:33;;;;;;;7.10;4.93;;;;;;;16.05;56.84;101930.53;5136207;27;20526;-39
2021/05/20 11:22:04;;;;;;;5.65;5.15;;;;;;;16.07;57.07;101942.06;5135947;27;20453;-39
2021/05/20 11:24:34;;;;;;;5.20;4.70;;;;;;;16.12;54.83;101923.06;5135920;27;20042;-39
2021/05/20 11:27:16;;;;;;;4.95;4.50;;;;;;;16.25;54.57;101921.09;5135726;27;20072;-40
2021/05/20 11:29:43;;;;;;;5.50;4.88;;;;;;;16.41;57.81;101923.91;5135451;27;20039;-39